Terminal Aerodrome Forecast
Issued by NWS

Home | Current Version | Previous Version | Text Only | Print | Product List | Glossary On
Versions: 1 2 3 4 5 6 7 8 9 10 11 12 13 14 15 16
000
FTUS44 KSJT 170500
TAFJCT
TAF
KJCT 170520Z 1706/1806 VRB04KT P6SM BKN120
     FM170900 VRB03KT P6SM BKN015
     FM171500 VRB06KT P6SM SCT030 SCT120
     FM171800 10007KT P6SM SCT050 BKN200=

USA.gov is the U.S. government's official web portal to all federal, state and local government web resources and services.